sensor_id;sensor_type;location;lat;lon;timestamp;P1;durP1;ratioP1;P2;durP2;ratioP2
75990;SDS011;64673;52.276;10.560;2022-10-31T00:01:22;8.88;;;4.25;;
75990;SDS011;64673;52.276;10.560;2022-10-31T00:03:58;11.20;;;4.00;;
75990;SDS011;64673;52.276;10.560;2022-10-31T00:06:24;15.55;;;4.28;;
75990;SDS011;64673;52.276;10.560;2022-10-31T00:08:53;8.60;;;3.75;;
75990;SDS011;64673;52.276;10.560;2022-10-31T00:11:21;9.43;;;3.65;;
75990;SDS011;64673;52.276;10.560;2022-10-31T00:13:46;7.95;;;3.95;;
75990;SDS011;64673;52.276;10.560;2022-10-31T00:16:13;5.93;;;3.25;;
75990;SDS011;64673;52.276;10.560;2022-10-31T00:21:05;7.03;;;3.43;;
75990;SDS011;64673;52.276;10.560;2022-10-31T00:23:30;9.23;;;3.90;;
75990;SDS011;64673;52.276;10.560;2022-10-31T00:26:05;9.10;;;3.95;;
75990;SDS011;64673;52.276;10.560;2022-10-31T00:28:32;6.63;;;3.90;;
75990;SDS011;64673;52.276;10.560;2022-10-31T00:30:58;7.68;;;4.05;;
75990;SDS011;64673;52.276;10.560;2022-10-31T00:33:32;9.45;;;3.92;;
75990;SDS011;64673;52.276;10.560;2022-10-31T00:35:59;10.85;;;4.22;;
75990;SDS011;64673;52.276;10.560;2022-10-31T00:38:24;9.68;;;4.10;;
75990;SDS011;64673;52.276;10.560;2022-10-31T00:40:50;7.93;;;3.90;;
75990;SDS011;64673;52.276;10.560;2022-10-31T00:43:15;11.43;;;3.58;;
75990;SDS011;64673;52.276;10.560;2022-10-31T00:45:41;7.82;;;3.60;;
75990;SDS011;64673;52.276;10.560;2022-10-31T00:48:07;10.13;;;3.78;;
75990;SDS011;64673;52.276;10.560;2022-10-31T00:50:33;6.82;;;3.75;;
75990;SDS011;64673;52.276;10.560;2022-10-31T00:52:58;10.43;;;4.03;;
75990;SDS011;64673;52.276;10.560;2022-10-31T00:55:24;14.30;;;3.85;;
75990;SDS011;64673;52.276;10.560;2022-10-31T00:57:49;10.45;;;3.83;;
75990;SDS011;64673;52.276;10.560;2022-10-31T01:00:14;8.07;;;4.20;;
75990;SDS011;64673;52.276;10.560;2022-10-31T01:02:40;12.27;;;4.93;;
75990;SDS011;64673;52.276;10.560;2022-10-31T01:05:06;8.55;;;4.07;;
75990;SDS011;64673;52.276;10.560;2022-10-31T01:07:31;8.90;;;4.10;;
75990;SDS011;64673;52.276;10.560;2022-10-31T01:09:57;9.07;;;3.92;;
75990;SDS011;64673;52.276;10.560;2022-10-31T01:12:22;8.80;;;3.60;;
75990;SDS011;64673;52.276;10.560;2022-10-31T01:14:47;10.80;;;4.10;;
75990;SDS011;64673;52.276;10.560;2022-10-31T01:17:13;11.70;;;4.32;;
75990;SDS011;64673;52.276;10.560;2022-10-31T01:19:39;12.43;;;4.90;;
75990;SDS011;64673;52.276;10.560;2022-10-31T01:22:04;12.45;;;5.25;;
75990;SDS011;64673;52.276;10.560;2022-10-31T01:24:30;11.40;;;5.70;;
75990;SDS011;64673;52.276;10.560;2022-10-31T01:26:55;12.82;;;5.90;;
75990;SDS011;64673;52.276;10.560;2022-10-31T01:29:20;10.35;;;5.32;;
75990;SDS011;64673;52.276;10.560;2022-10-31T01:31:46;12.95;;;4.88;;
75990;SDS011;64673;52.276;10.560;2022-10-31T01:34:15;9.43;;;5.13;;
75990;SDS011;64673;52.276;10.560;2022-10-31T01:36:42;9.63;;;4.95;;
75990;SDS011;64673;52.276;10.560;2022-10-31T01:39:11;10.63;;;4.85;;
75990;SDS011;64673;52.276;10.560;2022-10-31T01:41:39;8.38;;;4.70;;
75990;SDS011;64673;52.276;10.560;2022-10-31T01:49:13;8.05;;;3.75;;
75990;SDS011;64673;52.276;10.560;2022-10-31T01:51:45;8.45;;;3.85;;
75990;SDS011;64673;52.276;10.560;2022-10-31T01:54:16;10.55;;;3.90;;
75990;SDS011;64673;52.276;10.560;2022-10-31T01:56:46;10.60;;;5.00;;
75990;SDS011;64673;52.276;10.560;2022-10-31T01:59:15;7.57;;;3.28;;
75990;SDS011;64673;52.276;10.560;2022-10-31T02:01:43;13.02;;;3.92;;
75990;SDS011;64673;52.276;10.560;2022-10-31T02:04:09;7.82;;;3.50;;
75990;SDS011;64673;52.276;10.560;2022-10-31T02:06:38;8.75;;;4.55;;
75990;SDS011;64673;52.276;10.560;2022-10-31T02:09:08;9.73;;;3.60;;
75990;SDS011;64673;52.276;10.560;2022-10-31T02:11:34;8.80;;;4.45;;
75990;SDS011;64673;52.276;10.560;2022-10-31T02:14:01;7.28;;;3.55;;
75990;SDS011;64673;52.276;10.560;2022-10-31T02:16:27;9.15;;;3.55;;
75990;SDS011;64673;52.276;10.560;2022-10-31T02:18:53;6.63;;;3.40;;
75990;SDS011;64673;52.276;10.560;2022-10-31T02:29:56;12.55;;;4.65;;
75990;SDS011;64673;52.276;10.560;2022-10-31T02:43:28;7.22;;;3.50;;
75990;SDS011;64673;52.276;10.560;2022-10-31T02:48:38;12.25;;;3.72;;
75990;SDS011;64673;52.276;10.560;2022-10-31T02:51:06;9.18;;;4.03;;
75990;SDS011;64673;52.276;10.560;2022-10-31T02:53:35;10.05;;;3.83;;
75990;SDS011;64673;52.276;10.560;2022-10-31T02:58:32;9.88;;;3.47;;
75990;SDS011;64673;52.276;10.560;2022-10-31T03:01:10;12.32;;;4.00;;
75990;SDS011;64673;52.276;10.560;2022-10-31T03:06:55;8.10;;;3.78;;
75990;SDS011;64673;52.276;10.560;2022-10-31T03:09:26;13.48;;;3.88;;
75990;SDS011;64673;52.276;10.560;2022-10-31T03:17:41;13.73;;;5.13;;
75990;SDS011;64673;52.276;10.560;2022-10-31T03:20:11;12.88;;;5.38;;
75990;SDS011;64673;52.276;10.560;2022-10-31T03:22:37;13.35;;;6.25;;
75990;SDS011;64673;52.276;10.560;2022-10-31T03:25:07;15.15;;;5.80;;
75990;SDS011;64673;52.276;10.560;2022-10-31T03:27:34;15.05;;;6.10;;
75990;SDS011;64673;52.276;10.560;2022-10-31T03:30:03;21.48;;;6.70;;
75990;SDS011;64673;52.276;10.560;2022-10-31T03:34:56;15.20;;;6.65;;
75990;SDS011;64673;52.276;10.560;2022-10-31T03:37:24;14.88;;;6.28;;
75990;SDS011;64673;52.276;10.560;2022-10-31T03:39:52;13.93;;;6.78;;
75990;SDS011;64673;52.276;10.560;2022-10-31T03:42:24;19.45;;;7.57;;
75990;SDS011;64673;52.276;10.560;2022-10-31T03:44:55;17.90;;;8.05;;
75990;SDS011;64673;52.276;10.560;2022-10-31T03:47:21;15.30;;;7.72;;
75990;SDS011;64673;52.276;10.560;2022-10-31T03:49:47;14.50;;;7.22;;
75990;SDS011;64673;52.276;10.560;2022-10-31T03:52:23;15.68;;;7.05;;
75990;SDS011;64673;52.276;10.560;2022-10-31T03:54:59;15.27;;;8.25;;
75990;SDS011;64673;52.276;10.560;2022-10-31T03:57:30;15.20;;;7.03;;
75990;SDS011;64673;52.276;10.560;2022-10-31T04:00:09;17.58;;;7.90;;
75990;SDS011;64673;52.276;10.560;2022-10-31T04:02:39;21.83;;;9.05;;
75990;SDS011;64673;52.276;10.560;2022-10-31T04:05:11;24.25;;;9.38;;
75990;SDS011;64673;52.276;10.560;2022-10-31T04:10:07;18.25;;;6.47;;
75990;SDS011;64673;52.276;10.560;2022-10-31T04:12:35;19.35;;;6.85;;
75990;SDS011;64673;52.276;10.560;2022-10-31T04:15:03;17.55;;;6.72;;
75990;SDS011;64673;52.276;10.560;2022-10-31T04:17:32;21.25;;;9.40;;
75990;SDS011;64673;52.276;10.560;2022-10-31T04:20:02;19.45;;;9.20;;
75990;SDS011;64673;52.276;10.560;2022-10-31T04:22:28;21.85;;;9.48;;
75990;SDS011;64673;52.276;10.560;2022-10-31T04:24:54;21.70;;;9.20;;
75990;SDS011;64673;52.276;10.560;2022-10-31T04:27:19;24.73;;;9.75;;
75990;SDS011;64673;52.276;10.560;2022-10-31T04:29:45;22.08;;;9.45;;
75990;SDS011;64673;52.276;10.560;2022-10-31T04:32:11;24.40;;;9.85;;
75990;SDS011;64673;52.276;10.560;2022-10-31T04:34:36;19.55;;;8.77;;
75990;SDS011;64673;52.276;10.560;2022-10-31T04:37:02;20.15;;;7.50;;
75990;SDS011;64673;52.276;10.560;2022-10-31T04:39:27;18.75;;;7.65;;
75990;SDS011;64673;52.276;10.560;2022-10-31T04:41:53;18.27;;;8.00;;
75990;SDS011;64673;52.276;10.560;2022-10-31T04:44:19;17.90;;;8.30;;
75990;SDS011;64673;52.276;10.560;2022-10-31T04:46:44;18.52;;;7.38;;
75990;SDS011;64673;52.276;10.560;2022-10-31T04:49:10;21.40;;;9.60;;
75990;SDS011;64673;52.276;10.560;2022-10-31T04:51:35;19.63;;;7.53;;
75990;SDS011;64673;52.276;10.560;2022-10-31T04:54:00;13.75;;;7.10;;
75990;SDS011;64673;52.276;10.560;2022-10-31T04:56:26;18.95;;;8.68;;
75990;SDS011;64673;52.276;10.560;2022-10-31T04:58:51;23.48;;;9.80;;
75990;SDS011;64673;52.276;10.560;2022-10-31T05:01:16;17.98;;;8.57;;
75990;SDS011;64673;52.276;10.560;2022-10-31T05:03:42;15.48;;;7.45;;
75990;SDS011;64673;52.276;10.560;2022-10-31T05:06:07;21.92;;;8.32;;
75990;SDS011;64673;52.276;10.560;2022-10-31T05:08:33;22.45;;;8.57;;
75990;SDS011;64673;52.276;10.560;2022-10-31T05:10:59;17.10;;;8.07;;
75990;SDS011;64673;52.276;10.560;2022-10-31T05:13:26;18.63;;;8.18;;
75990;SDS011;64673;52.276;10.560;2022-10-31T05:15:52;22.88;;;8.73;;
75990;SDS011;64673;52.276;10.560;2022-10-31T05:18:17;18.52;;;8.65;;
75990;SDS011;64673;52.276;10.560;2022-10-31T05:20:43;27.88;;;11.27;;
75990;SDS011;64673;52.276;10.560;2022-10-31T05:23:08;23.38;;;9.75;;
75990;SDS011;64673;52.276;10.560;2022-10-31T05:25:33;24.27;;;10.20;;
75990;SDS011;64673;52.276;10.560;2022-10-31T05:27:59;22.65;;;9.73;;
75990;SDS011;64673;52.276;10.560;2022-10-31T05:30:26;25.33;;;9.68;;
75990;SDS011;64673;52.276;10.560;2022-10-31T05:32:53;27.83;;;10.98;;
75990;SDS011;64673;52.276;10.560;2022-10-31T05:35:26;23.92;;;10.77;;
75990;SDS011;64673;52.276;10.560;2022-10-31T05:37:54;25.13;;;10.68;;
75990;SDS011;64673;52.276;10.560;2022-10-31T05:40:19;24.95;;;10.48;;
75990;SDS011;64673;52.276;10.560;2022-10-31T05:42:46;27.20;;;10.20;;
75990;SDS011;64673;52.276;10.560;2022-10-31T05:45:14;22.40;;;10.20;;
75990;SDS011;64673;52.276;10.560;2022-10-31T05:47:41;20.60;;;9.65;;
75990;SDS011;64673;52.276;10.560;2022-10-31T05:50:08;20.08;;;9.50;;
75990;SDS011;64673;52.276;10.560;2022-10-31T05:52:34;26.23;;;10.95;;
75990;SDS011;64673;52.276;10.560;2022-10-31T05:55:00;25.00;;;10.55;;
75990;SDS011;64673;52.276;10.560;2022-10-31T05:57:25;20.23;;;9.32;;
75990;SDS011;64673;52.276;10.560;2022-10-31T05:59:51;22.52;;;9.95;;
75990;SDS011;64673;52.276;10.560;2022-10-31T06:02:19;24.38;;;9.88;;
75990;SDS011;64673;52.276;10.560;2022-10-31T06:04:45;22.30;;;9.73;;
75990;SDS011;64673;52.276;10.560;2022-10-31T06:07:11;20.58;;;9.80;;
75990;SDS011;64673;52.276;10.560;2022-10-31T06:09:36;22.75;;;9.95;;
75990;SDS011;64673;52.276;10.560;2022-10-31T06:12:02;20.48;;;9.30;;
75990;SDS011;64673;52.276;10.560;2022-10-31T06:14:27;21.63;;;9.35;;
75990;SDS011;64673;52.276;10.560;2022-10-31T06:16:56;23.50;;;9.88;;
75990;SDS011;64673;52.276;10.560;2022-10-31T06:19:21;20.25;;;8.77;;
75990;SDS011;64673;52.276;10.560;2022-10-31T06:21:48;23.52;;;9.20;;
75990;SDS011;64673;52.276;10.560;2022-10-31T06:24:14;22.13;;;8.65;;
75990;SDS011;64673;52.276;10.560;2022-10-31T06:26:40;18.95;;;8.50;;
75990;SDS011;64673;52.276;10.560;2022-10-31T06:29:05;24.55;;;9.88;;
75990;SDS011;64673;52.276;10.560;2022-10-31T06:31:30;22.70;;;9.10;;
75990;SDS011;64673;52.276;10.560;2022-10-31T06:33:56;21.02;;;8.50;;
75990;SDS011;64673;52.276;10.560;2022-10-31T06:36:21;19.70;;;9.45;;
75990;SDS011;64673;52.276;10.560;2022-10-31T06:38:47;21.55;;;10.25;;
75990;SDS011;64673;52.276;10.560;2022-10-31T06:41:12;23.98;;;9.90;;
75990;SDS011;64673;52.276;10.560;2022-10-31T06:43:37;22.92;;;8.80;;
75990;SDS011;64673;52.276;10.560;2022-10-31T06:46:03;19.48;;;9.35;;
75990;SDS011;64673;52.276;10.560;2022-10-31T06:48:30;29.02;;;10.18;;
75990;SDS011;64673;52.276;10.560;2022-10-31T06:50:59;26.50;;;10.13;;
75990;SDS011;64673;52.276;10.560;2022-10-31T06:53:25;26.15;;;10.15;;
75990;SDS011;64673;52.276;10.560;2022-10-31T06:55:52;26.15;;;9.85;;
75990;SDS011;64673;52.276;10.560;2022-10-31T06:58:20;26.42;;;9.80;;
75990;SDS011;64673;52.276;10.560;2022-10-31T07:00:45;21.52;;;9.52;;
75990;SDS011;64673;52.276;10.560;2022-10-31T07:03:11;26.58;;;11.00;;
75990;SDS011;64673;52.276;10.560;2022-10-31T07:05:38;23.23;;;9.15;;
75990;SDS011;64673;52.276;10.560;2022-10-31T07:08:05;25.33;;;10.07;;
75990;SDS011;64673;52.276;10.560;2022-10-31T07:10:34;21.13;;;10.48;;
75990;SDS011;64673;52.276;10.560;2022-10-31T07:13:03;22.10;;;10.32;;
75990;SDS011;64673;52.276;10.560;2022-10-31T07:15:33;23.70;;;10.60;;
75990;SDS011;64673;52.276;10.560;2022-10-31T07:18:00;25.60;;;11.23;;
75990;SDS011;64673;52.276;10.560;2022-10-31T07:20:26;23.80;;;10.73;;
75990;SDS011;64673;52.276;10.560;2022-10-31T07:22:52;25.60;;;11.00;;
75990;SDS011;64673;52.276;10.560;2022-10-31T07:25:17;22.13;;;10.73;;
75990;SDS011;64673;52.276;10.560;2022-10-31T07:27:43;27.13;;;11.32;;
75990;SDS011;64673;52.276;10.560;2022-10-31T07:30:09;25.33;;;10.35;;
75990;SDS011;64673;52.276;10.560;2022-10-31T07:32:42;24.13;;;10.18;;
75990;SDS011;64673;52.276;10.560;2022-10-31T07:35:10;24.15;;;10.55;;
75990;SDS011;64673;52.276;10.560;2022-10-31T07:37:37;24.48;;;9.48;;
75990;SDS011;64673;52.276;10.560;2022-10-31T07:40:03;25.50;;;10.80;;
75990;SDS011;64673;52.276;10.560;2022-10-31T07:42:34;23.13;;;9.18;;
75990;SDS011;64673;52.276;10.560;2022-10-31T07:45:07;27.55;;;10.63;;
75990;SDS011;64673;52.276;10.560;2022-10-31T07:47:40;23.17;;;9.98;;
75990;SDS011;64673;52.276;10.560;2022-10-31T07:50:06;28.92;;;11.00;;
75990;SDS011;64673;52.276;10.560;2022-10-31T07:52:33;32.80;;;12.55;;
75990;SDS011;64673;52.276;10.560;2022-10-31T07:54:59;26.40;;;10.38;;
75990;SDS011;64673;52.276;10.560;2022-10-31T07:57:24;27.20;;;11.55;;
75990;SDS011;64673;52.276;10.560;2022-10-31T07:59:49;27.58;;;11.32;;
75990;SDS011;64673;52.276;10.560;2022-10-31T08:02:15;27.17;;;11.23;;
75990;SDS011;64673;52.276;10.560;2022-10-31T08:04:40;22.60;;;10.77;;
75990;SDS011;64673;52.276;10.560;2022-10-31T08:07:06;23.00;;;10.65;;
75990;SDS011;64673;52.276;10.560;2022-10-31T08:09:31;33.50;;;10.95;;
75990;SDS011;64673;52.276;10.560;2022-10-31T08:11:56;25.33;;;11.38;;
75990;SDS011;64673;52.276;10.560;2022-10-31T08:14:22;30.20;;;10.88;;
75990;SDS011;64673;52.276;10.560;2022-10-31T08:16:47;29.30;;;12.07;;
75990;SDS011;64673;52.276;10.560;2022-10-31T08:19:13;28.90;;;11.77;;
75990;SDS011;64673;52.276;10.560;2022-10-31T08:21:38;26.05;;;11.50;;
75990;SDS011;64673;52.276;10.560;2022-10-31T08:24:04;26.40;;;11.35;;
75990;SDS011;64673;52.276;10.560;2022-10-31T08:26:29;26.92;;;11.63;;
75990;SDS011;64673;52.276;10.560;2022-10-31T08:28:55;28.75;;;11.45;;
75990;SDS011;64673;52.276;10.560;2022-10-31T08:31:21;29.65;;;11.70;;
75990;SDS011;64673;52.276;10.560;2022-10-31T08:33:46;35.40;;;12.68;;
75990;SDS011;64673;52.276;10.560;2022-10-31T08:36:11;24.23;;;11.02;;
75990;SDS011;64673;52.276;10.560;2022-10-31T08:38:37;24.35;;;11.55;;
75990;SDS011;64673;52.276;10.560;2022-10-31T08:41:02;26.98;;;12.07;;
75990;SDS011;64673;52.276;10.560;2022-10-31T08:43:28;29.20;;;13.07;;
75990;SDS011;64673;52.276;10.560;2022-10-31T08:45:53;29.13;;;12.23;;
75990;SDS011;64673;52.276;10.560;2022-10-31T08:48:20;37.10;;;13.45;;
75990;SDS011;64673;52.276;10.560;2022-10-31T08:50:45;43.63;;;15.57;;
75990;SDS011;64673;52.276;10.560;2022-10-31T08:55:37;42.33;;;16.70;;
75990;SDS011;64673;52.276;10.560;2022-10-31T08:58:04;51.03;;;18.30;;
75990;SDS011;64673;52.276;10.560;2022-10-31T09:00:32;44.28;;;16.30;;
75990;SDS011;64673;52.276;10.560;2022-10-31T09:02:58;53.90;;;18.63;;
75990;SDS011;64673;52.276;10.560;2022-10-31T09:05:25;49.15;;;17.20;;
75990;SDS011;64673;52.276;10.560;2022-10-31T09:07:54;43.65;;;16.77;;
75990;SDS011;64673;52.276;10.560;2022-10-31T09:10:20;43.63;;;17.60;;
75990;SDS011;64673;52.276;10.560;2022-10-31T09:12:45;43.33;;;17.58;;
75990;SDS011;64673;52.276;10.560;2022-10-31T09:15:11;45.45;;;16.48;;
75990;SDS011;64673;52.276;10.560;2022-10-31T09:17:36;48.17;;;16.52;;
75990;SDS011;64673;52.276;10.560;2022-10-31T09:20:02;43.97;;;16.70;;
75990;SDS011;64673;52.276;10.560;2022-10-31T09:22:27;47.65;;;16.35;;
75990;SDS011;64673;52.276;10.560;2022-10-31T09:24:52;43.10;;;17.27;;
75990;SDS011;64673;52.276;10.560;2022-10-31T09:27:18;40.25;;;15.43;;
75990;SDS011;64673;52.276;10.560;2022-10-31T09:29:43;41.88;;;15.35;;
75990;SDS011;64673;52.276;10.560;2022-10-31T09:32:08;44.58;;;16.55;;
75990;SDS011;64673;52.276;10.560;2022-10-31T09:34:34;39.75;;;16.17;;
75990;SDS011;64673;52.276;10.560;2022-10-31T09:36:59;41.83;;;16.35;;
75990;SDS011;64673;52.276;10.560;2022-10-31T09:39:24;42.67;;;16.13;;
75990;SDS011;64673;52.276;10.560;2022-10-31T09:41:54;41.25;;;15.55;;
75990;SDS011;64673;52.276;10.560;2022-10-31T09:44:43;39.75;;;15.38;;
75990;SDS011;64673;52.276;10.560;2022-10-31T09:50:21;42.85;;;16.02;;
75990;SDS011;64673;52.276;10.560;2022-10-31T09:53:03;41.83;;;15.63;;
75990;SDS011;64673;52.276;10.560;2022-10-31T09:55:37;39.28;;;15.45;;
75990;SDS011;64673;52.276;10.560;2022-10-31T09:58:13;42.65;;;14.82;;
75990;SDS011;64673;52.276;10.560;2022-10-31T10:00:43;46.63;;;15.15;;
75990;SDS011;64673;52.276;10.560;2022-10-31T10:05:57;46.17;;;17.48;;
75990;SDS011;64673;52.276;10.560;2022-10-31T10:08:25;38.90;;;15.35;;
75990;SDS011;64673;52.276;10.560;2022-10-31T10:16:34;44.15;;;16.83;;
75990;SDS011;64673;52.276;10.560;2022-10-31T10:29:33;34.17;;;13.82;;
75990;SDS011;64673;52.276;10.560;2022-10-31T10:32:19;36.08;;;14.15;;
75990;SDS011;64673;52.276;10.560;2022-10-31T10:34:50;33.47;;;12.82;;
75990;SDS011;64673;52.276;10.560;2022-10-31T10:39:45;38.88;;;14.70;;
75990;SDS011;64673;52.276;10.560;2022-10-31T10:42:14;41.58;;;15.30;;
75990;SDS011;64673;52.276;10.560;2022-10-31T10:45:00;38.00;;;14.20;;
75990;SDS011;64673;52.276;10.560;2022-10-31T10:48:02;36.00;;;13.73;;
75990;SDS011;64673;52.276;10.560;2022-10-31T10:50:35;35.92;;;14.45;;
75990;SDS011;64673;52.276;10.560;2022-10-31T10:58:20;33.80;;;13.23;;
75990;SDS011;64673;52.276;10.560;2022-10-31T11:00:46;39.88;;;13.63;;
75990;SDS011;64673;52.276;10.560;2022-10-31T11:03:13;33.97;;;13.57;;
75990;SDS011;64673;52.276;10.560;2022-10-31T11:08:30;26.70;;;12.35;;
75990;SDS011;64673;52.276;10.560;2022-10-31T11:11:19;31.08;;;13.18;;
75990;SDS011;64673;52.276;10.560;2022-10-31T11:13:59;32.03;;;12.75;;
75990;SDS011;64673;52.276;10.560;2022-10-31T11:16:33;27.73;;;11.25;;
75990;SDS011;64673;52.276;10.560;2022-10-31T11:19:09;26.23;;;10.60;;
75990;SDS011;64673;52.276;10.560;2022-10-31T11:21:42;27.00;;;10.98;;
75990;SDS011;64673;52.276;10.560;2022-10-31T11:26:35;22.77;;;9.47;;
75990;SDS011;64673;52.276;10.560;2022-10-31T11:29:02;21.90;;;9.00;;
75990;SDS011;64673;52.276;10.560;2022-10-31T11:31:29;17.83;;;8.70;;
75990;SDS011;64673;52.276;10.560;2022-10-31T11:36:30;20.95;;;9.15;;
75990;SDS011;64673;52.276;10.560;2022-10-31T11:38:57;22.23;;;9.40;;
75990;SDS011;64673;52.276;10.560;2022-10-31T11:41:36;19.42;;;9.43;;
75990;SDS011;64673;52.276;10.560;2022-10-31T11:46:39;23.73;;;9.45;;
75990;SDS011;64673;52.276;10.560;2022-10-31T11:49:15;25.17;;;10.63;;
75990;SDS011;64673;52.276;10.560;2022-10-31T11:52:02;21.55;;;9.75;;
75990;SDS011;64673;52.276;10.560;2022-10-31T11:54:38;21.38;;;9.02;;
75990;SDS011;64673;52.276;10.560;2022-10-31T11:59:55;26.00;;;10.02;;
75990;SDS011;64673;52.276;10.560;2022-10-31T12:02:23;23.52;;;9.25;;
75990;SDS011;64673;52.276;10.560;2022-10-31T12:04:51;22.08;;;9.73;;
75990;SDS011;64673;52.276;10.560;2022-10-31T12:07:29;21.40;;;9.40;;
75990;SDS011;64673;52.276;10.560;2022-10-31T12:09:55;22.02;;;9.30;;
75990;SDS011;64673;52.276;10.560;2022-10-31T12:12:27;22.90;;;9.95;;
75990;SDS011;64673;52.276;10.560;2022-10-31T12:15:35;21.70;;;9.85;;
75990;SDS011;64673;52.276;10.560;2022-10-31T12:29:01;16.75;;;7.90;;
75990;SDS011;64673;52.276;10.560;2022-10-31T12:45:04;13.18;;;5.72;;
75990;SDS011;64673;52.276;10.560;2022-10-31T12:50:11;7.90;;;3.30;;
75990;SDS011;64673;52.276;10.560;2022-10-31T12:55:09;5.20;;;2.20;;
75990;SDS011;64673;52.276;10.560;2022-10-31T12:57:40;5.13;;;2.05;;
75990;SDS011;64673;52.276;10.560;2022-10-31T13:00:16;6.18;;;1.85;;
75990;SDS011;64673;52.276;10.560;2022-10-31T13:02:51;7.82;;;2.38;;
75990;SDS011;64673;52.276;10.560;2022-10-31T13:08:05;7.63;;;2.70;;
75990;SDS011;64673;52.276;10.560;2022-10-31T13:15:53;8.32;;;3.40;;
75990;SDS011;64673;52.276;10.560;2022-10-31T13:21:18;9.23;;;3.33;;
75990;SDS011;64673;52.276;10.560;2022-10-31T13:23:55;7.18;;;3.40;;
75990;SDS011;64673;52.276;10.560;2022-10-31T13:26:42;8.60;;;3.65;;
75990;SDS011;64673;52.276;10.560;2022-10-31T13:31:46;9.65;;;3.35;;
75990;SDS011;64673;52.276;10.560;2022-10-31T13:40:05;9.60;;;4.40;;
75990;SDS011;64673;52.276;10.560;2022-10-31T13:43:00;10.18;;;4.40;;
75990;SDS011;64673;52.276;10.560;2022-10-31T13:45:46;10.60;;;4.13;;
75990;SDS011;64673;52.276;10.560;2022-10-31T13:50:39;9.67;;;4.50;;
75990;SDS011;64673;52.276;10.560;2022-10-31T13:53:19;10.55;;;4.57;;
75990;SDS011;64673;52.276;10.560;2022-10-31T13:55:48;11.18;;;5.25;;
75990;SDS011;64673;52.276;10.560;2022-10-31T13:58:36;9.45;;;5.15;;
75990;SDS011;64673;52.276;10.560;2022-10-31T14:03:33;10.35;;;4.93;;
75990;SDS011;64673;52.276;10.560;2022-10-31T14:06:01;13.85;;;4.82;;
75990;SDS011;64673;52.276;10.560;2022-10-31T14:08:27;10.45;;;5.07;;
75990;SDS011;64673;52.276;10.560;2022-10-31T14:10:56;9.88;;;4.90;;
75990;SDS011;64673;52.276;10.560;2022-10-31T14:15:58;12.88;;;4.65;;
75990;SDS011;64673;52.276;10.560;2022-10-31T14:18:30;11.02;;;5.03;;
75990;SDS011;64673;52.276;10.560;2022-10-31T14:20:58;13.13;;;5.00;;
75990;SDS011;64673;52.276;10.560;2022-10-31T14:31:43;10.77;;;4.85;;
75990;SDS011;64673;52.276;10.560;2022-10-31T14:36:42;17.90;;;6.07;;
75990;SDS011;64673;52.276;10.560;2022-10-31T14:39:16;13.25;;;5.78;;
75990;SDS011;64673;52.276;10.560;2022-10-31T14:47:39;11.02;;;4.80;;
75990;SDS011;64673;52.276;10.560;2022-10-31T14:52:35;8.60;;;4.90;;
75990;SDS011;64673;52.276;10.560;2022-10-31T14:55:02;10.95;;;4.97;;
75990;SDS011;64673;52.276;10.560;2022-10-31T14:57:35;13.98;;;5.28;;
75990;SDS011;64673;52.276;10.560;2022-10-31T15:00:05;11.68;;;4.93;;
75990;SDS011;64673;52.276;10.560;2022-10-31T15:02:38;12.75;;;4.90;;
75990;SDS011;64673;52.276;10.560;2022-10-31T15:05:14;10.80;;;4.28;;
75990;SDS011;64673;52.276;10.560;2022-10-31T15:07:54;8.48;;;4.15;;
75990;SDS011;64673;52.276;10.560;2022-10-31T15:12:51;13.10;;;4.60;;
75990;SDS011;64673;52.276;10.560;2022-10-31T15:15:22;9.07;;;4.88;;
75990;SDS011;64673;52.276;10.560;2022-10-31T15:17:56;14.68;;;4.80;;
75990;SDS011;64673;52.276;10.560;2022-10-31T15:20:25;9.93;;;4.53;;
75990;SDS011;64673;52.276;10.560;2022-10-31T15:22:53;13.25;;;5.63;;
75990;SDS011;64673;52.276;10.560;2022-10-31T15:25:22;13.23;;;5.72;;
75990;SDS011;64673;52.276;10.560;2022-10-31T15:27:50;12.70;;;6.03;;
75990;SDS011;64673;52.276;10.560;2022-10-31T15:32:47;16.17;;;6.18;;
75990;SDS011;64673;52.276;10.560;2022-10-31T15:35:24;13.23;;;6.32;;
75990;SDS011;64673;52.276;10.560;2022-10-31T15:37:52;14.23;;;6.78;;
75990;SDS011;64673;52.276;10.560;2022-10-31T15:40:19;18.10;;;7.97;;
75990;SDS011;64673;52.276;10.560;2022-10-31T15:42:51;19.83;;;7.22;;
75990;SDS011;64673;52.276;10.560;2022-10-31T15:47:46;20.95;;;9.15;;
75990;SDS011;64673;52.276;10.560;2022-10-31T15:50:21;23.23;;;7.85;;
75990;SDS011;64673;52.276;10.560;2022-10-31T15:52:56;22.23;;;8.35;;
75990;SDS011;64673;52.276;10.560;2022-10-31T15:55:23;24.20;;;10.07;;
75990;SDS011;64673;52.276;10.560;2022-10-31T15:57:53;23.20;;;8.88;;
75990;SDS011;64673;52.276;10.560;2022-10-31T16:00:44;20.95;;;8.23;;
75990;SDS011;64673;52.276;10.560;2022-10-31T16:05:46;20.48;;;8.57;;
75990;SDS011;64673;52.276;10.560;2022-10-31T16:08:47;20.33;;;8.70;;
75990;SDS011;64673;52.276;10.560;2022-10-31T16:13:52;21.42;;;9.10;;
75990;SDS011;64673;52.276;10.560;2022-10-31T16:16:21;24.55;;;9.98;;
75990;SDS011;64673;52.276;10.560;2022-10-31T16:18:47;23.75;;;9.65;;
75990;SDS011;64673;52.276;10.560;2022-10-31T16:21:14;20.25;;;8.93;;
75990;SDS011;64673;52.276;10.560;2022-10-31T16:23:44;27.30;;;10.13;;
75990;SDS011;64673;52.276;10.560;2022-10-31T16:26:13;25.00;;;10.90;;
75990;SDS011;64673;52.276;10.560;2022-10-31T16:28:53;22.45;;;10.20;;
75990;SDS011;64673;52.276;10.560;2022-10-31T16:31:27;31.63;;;10.10;;
75990;SDS011;64673;52.276;10.560;2022-10-31T16:34:01;21.70;;;10.23;;
75990;SDS011;64673;52.276;10.560;2022-10-31T16:38:57;28.73;;;10.88;;
75990;SDS011;64673;52.276;10.560;2022-10-31T16:41:23;20.85;;;9.70;;
75990;SDS011;64673;52.276;10.560;2022-10-31T16:43:50;26.30;;;10.07;;
75990;SDS011;64673;52.276;10.560;2022-10-31T16:46:19;25.15;;;10.63;;
75990;SDS011;64673;52.276;10.560;2022-10-31T16:48:48;33.03;;;11.15;;
75990;SDS011;64673;52.276;10.560;2022-10-31T16:51:13;23.45;;;9.88;;
75990;SDS011;64673;52.276;10.560;2022-10-31T16:53:39;26.10;;;9.32;;
75990;SDS011;64673;52.276;10.560;2022-10-31T16:56:04;27.00;;;10.35;;
75990;SDS011;64673;52.276;10.560;2022-10-31T16:58:30;24.40;;;10.40;;
75990;SDS011;64673;52.276;10.560;2022-10-31T17:00:58;28.85;;;11.27;;
75990;SDS011;64673;52.276;10.560;2022-10-31T17:03:24;28.10;;;11.80;;
75990;SDS011;64673;52.276;10.560;2022-10-31T17:05:50;24.83;;;10.48;;
75990;SDS011;64673;52.276;10.560;2022-10-31T17:08:16;27.75;;;10.68;;
75990;SDS011;64673;52.276;10.560;2022-10-31T17:10:41;35.83;;;14.48;;
75990;SDS011;64673;52.276;10.560;2022-10-31T17:13:22;37.97;;;14.18;;
75990;SDS011;64673;52.276;10.560;2022-10-31T17:15:50;38.35;;;15.15;;
75990;SDS011;64673;52.276;10.560;2022-10-31T17:18:18;42.40;;;15.80;;
75990;SDS011;64673;52.276;10.560;2022-10-31T17:20:44;44.47;;;15.73;;
75990;SDS011;64673;52.276;10.560;2022-10-31T17:23:10;45.08;;;17.02;;
75990;SDS011;64673;52.276;10.560;2022-10-31T17:28:02;47.08;;;15.82;;
75990;SDS011;64673;52.276;10.560;2022-10-31T17:30:29;48.85;;;16.55;;
75990;SDS011;64673;52.276;10.560;2022-10-31T17:32:55;45.75;;;16.10;;